sensor_id;sensor_type;location;lat;lon;timestamp;P1;durP1;ratioP1;P2;durP2;ratioP2
7737;SDS011;29398;45.328;5.558;2024-01-30T00:01:01;28.13;;;21.38;;
7737;SDS011;29398;45.328;5.558;2024-01-30T00:02:02;33.08;;;24.58;;
7737;SDS011;29398;45.328;5.558;2024-01-30T00:03:04;30.48;;;22.20;;
7737;SDS011;29398;45.328;5.558;2024-01-30T00:04:05;29.50;;;22.38;;
7737;SDS011;29398;45.328;5.558;2024-01-30T00:05:07;33.55;;;23.13;;
7737;SDS011;29398;45.328;5.558;2024-01-30T00:06:08;31.58;;;22.38;;
7737;SDS011;29398;45.328;5.558;2024-01-30T00:07:10;34.90;;;22.80;;
7737;SDS011;29398;45.328;5.558;2024-01-30T00:08:11;26.95;;;20.63;;
7737;SDS011;29398;45.328;5.558;2024-01-30T00:09:13;28.55;;;20.67;;
7737;SDS011;29398;45.328;5.558;2024-01-30T00:10:15;32.17;;;23.08;;
7737;SDS011;29398;45.328;5.558;2024-01-30T00:11:17;28.98;;;20.30;;
7737;SDS011;29398;45.328;5.558;2024-01-30T00:12:18;28.35;;;20.98;;
7737;SDS011;29398;45.328;5.558;2024-01-30T00:13:19;30.27;;;21.55;;
7737;SDS011;29398;45.328;5.558;2024-01-30T00:14:21;27.48;;;20.77;;
7737;SDS011;29398;45.328;5.558;2024-01-30T00:15:24;30.85;;;22.45;;
7737;SDS011;29398;45.328;5.558;2024-01-30T00:16:26;28.52;;;22.27;;
7737;SDS011;29398;45.328;5.558;2024-01-30T00:17:28;27.58;;;20.52;;
7737;SDS011;29398;45.328;5.558;2024-01-30T00:18:30;28.00;;;20.65;;
7737;SDS011;29398;45.328;5.558;2024-01-30T00:19:31;29.45;;;22.10;;
7737;SDS011;29398;45.328;5.558;2024-01-30T00:20:33;27.40;;;20.30;;
7737;SDS011;29398;45.328;5.558;2024-01-30T00:21:34;31.40;;;21.38;;
7737;SDS011;29398;45.328;5.558;2024-01-30T00:22:36;32.60;;;21.80;;
7737;SDS011;29398;45.328;5.558;2024-01-30T00:23:37;31.90;;;23.55;;
7737;SDS011;29398;45.328;5.558;2024-01-30T00:24:39;30.35;;;22.15;;
7737;SDS011;29398;45.328;5.558;2024-01-30T00:25:40;33.25;;;24.10;;
7737;SDS011;29398;45.328;5.558;2024-01-30T00:26:42;31.80;;;23.23;;
7737;SDS011;29398;45.328;5.558;2024-01-30T00:27:43;34.08;;;25.73;;
7737;SDS011;29398;45.328;5.558;2024-01-30T00:28:45;32.83;;;24.48;;
7737;SDS011;29398;45.328;5.558;2024-01-30T00:29:46;34.60;;;25.05;;
7737;SDS011;29398;45.328;5.558;2024-01-30T00:30:50;42.38;;;27.75;;
7737;SDS011;29398;45.328;5.558;2024-01-30T00:31:51;40.20;;;29.52;;
7737;SDS011;29398;45.328;5.558;2024-01-30T00:32:54;37.45;;;26.88;;
7737;SDS011;29398;45.328;5.558;2024-01-30T00:33:55;42.05;;;28.55;;
7737;SDS011;29398;45.328;5.558;2024-01-30T00:34:57;35.15;;;26.35;;
7737;SDS011;29398;45.328;5.558;2024-01-30T00:35:58;43.97;;;29.80;;
7737;SDS011;29398;45.328;5.558;2024-01-30T00:37:00;38.13;;;27.77;;
7737;SDS011;29398;45.328;5.558;2024-01-30T00:38:01;37.28;;;27.55;;
7737;SDS011;29398;45.328;5.558;2024-01-30T00:39:03;39.42;;;27.90;;
7737;SDS011;29398;45.328;5.558;2024-01-30T00:40:07;38.50;;;28.35;;
7737;SDS011;29398;45.328;5.558;2024-01-30T00:41:10;44.17;;;32.15;;
7737;SDS011;29398;45.328;5.558;2024-01-30T00:42:12;40.25;;;30.33;;
7737;SDS011;29398;45.328;5.558;2024-01-30T00:43:13;40.67;;;28.90;;
7737;SDS011;29398;45.328;5.558;2024-01-30T00:44:16;38.47;;;28.58;;
7737;SDS011;29398;45.328;5.558;2024-01-30T00:45:17;42.60;;;29.33;;
7737;SDS011;29398;45.328;5.558;2024-01-30T00:46:20;44.90;;;30.38;;
7737;SDS011;29398;45.328;5.558;2024-01-30T00:47:22;43.53;;;29.15;;
7737;SDS011;29398;45.328;5.558;2024-01-30T00:48:24;40.42;;;28.23;;
7737;SDS011;29398;45.328;5.558;2024-01-30T00:49:24;37.70;;;27.98;;
7737;SDS011;29398;45.328;5.558;2024-01-30T00:50:26;39.58;;;27.60;;
7737;SDS011;29398;45.328;5.558;2024-01-30T00:51:27;40.50;;;28.45;;
7737;SDS011;29398;45.328;5.558;2024-01-30T00:52:30;45.38;;;30.40;;
7737;SDS011;29398;45.328;5.558;2024-01-30T00:53:31;40.47;;;29.25;;
7737;SDS011;29398;45.328;5.558;2024-01-30T00:54:33;44.80;;;30.63;;
7737;SDS011;29398;45.328;5.558;2024-01-30T00:55:34;40.10;;;30.40;;
7737;SDS011;29398;45.328;5.558;2024-01-30T00:56:36;45.65;;;30.30;;
7737;SDS011;29398;45.328;5.558;2024-01-30T00:57:37;40.28;;;29.70;;
7737;SDS011;29398;45.328;5.558;2024-01-30T00:58:39;38.28;;;28.35;;
7737;SDS011;29398;45.328;5.558;2024-01-30T00:59:41;42.38;;;29.17;;
7737;SDS011;29398;45.328;5.558;2024-01-30T01:00:43;45.80;;;30.95;;
7737;SDS011;29398;45.328;5.558;2024-01-30T01:01:45;42.70;;;28.45;;
7737;SDS011;29398;45.328;5.558;2024-01-30T01:02:47;40.53;;;27.70;;
7737;SDS011;29398;45.328;5.558;2024-01-30T01:03:48;41.00;;;30.05;;
7737;SDS011;29398;45.328;5.558;2024-01-30T01:04:49;38.42;;;28.17;;
7737;SDS011;29398;45.328;5.558;2024-01-30T01:05:51;39.72;;;29.67;;
7737;SDS011;29398;45.328;5.558;2024-01-30T01:06:52;37.72;;;27.70;;
7737;SDS011;29398;45.328;5.558;2024-01-30T01:07:54;35.15;;;26.52;;
7737;SDS011;29398;45.328;5.558;2024-01-30T01:08:56;38.90;;;26.20;;
7737;SDS011;29398;45.328;5.558;2024-01-30T01:09:57;35.95;;;26.67;;
7737;SDS011;29398;45.328;5.558;2024-01-30T01:10:59;34.30;;;26.52;;
7737;SDS011;29398;45.328;5.558;2024-01-30T01:12:00;36.15;;;26.23;;
7737;SDS011;29398;45.328;5.558;2024-01-30T01:13:01;36.47;;;26.50;;
7737;SDS011;29398;45.328;5.558;2024-01-30T01:14:03;39.75;;;28.65;;
7737;SDS011;29398;45.328;5.558;2024-01-30T01:15:05;37.47;;;26.83;;
7737;SDS011;29398;45.328;5.558;2024-01-30T01:16:10;34.70;;;25.67;;
7737;SDS011;29398;45.328;5.558;2024-01-30T01:17:12;35.92;;;25.90;;
7737;SDS011;29398;45.328;5.558;2024-01-30T01:18:14;36.60;;;26.80;;
7737;SDS011;29398;45.328;5.558;2024-01-30T01:19:16;36.10;;;26.45;;
7737;SDS011;29398;45.328;5.558;2024-01-30T01:20:18;34.05;;;25.17;;
7737;SDS011;29398;45.328;5.558;2024-01-30T01:21:19;33.67;;;25.73;;
7737;SDS011;29398;45.328;5.558;2024-01-30T01:22:21;33.40;;;25.00;;
7737;SDS011;29398;45.328;5.558;2024-01-30T01:23:23;34.92;;;26.10;;
7737;SDS011;29398;45.328;5.558;2024-01-30T01:24:25;36.92;;;26.02;;
7737;SDS011;29398;45.328;5.558;2024-01-30T01:25:26;35.15;;;24.02;;
7737;SDS011;29398;45.328;5.558;2024-01-30T01:26:28;35.72;;;25.45;;
7737;SDS011;29398;45.328;5.558;2024-01-30T01:27:29;35.22;;;25.38;;
7737;SDS011;29398;45.328;5.558;2024-01-30T01:28:30;30.48;;;24.30;;
7737;SDS011;29398;45.328;5.558;2024-01-30T01:29:32;35.08;;;25.40;;
7737;SDS011;29398;45.328;5.558;2024-01-30T01:30:33;31.38;;;24.80;;
7737;SDS011;29398;45.328;5.558;2024-01-30T01:31:35;33.25;;;24.80;;
7737;SDS011;29398;45.328;5.558;2024-01-30T01:32:41;35.63;;;25.08;;
7737;SDS011;29398;45.328;5.558;2024-01-30T01:33:49;38.65;;;24.38;;
7737;SDS011;29398;45.328;5.558;2024-01-30T01:34:50;37.58;;;24.95;;
7737;SDS011;29398;45.328;5.558;2024-01-30T01:35:52;33.83;;;25.88;;
7737;SDS011;29398;45.328;5.558;2024-01-30T01:36:53;33.83;;;25.48;;
7737;SDS011;29398;45.328;5.558;2024-01-30T01:37:56;33.15;;;25.83;;
7737;SDS011;29398;45.328;5.558;2024-01-30T01:38:58;38.58;;;27.80;;
7737;SDS011;29398;45.328;5.558;2024-01-30T01:40:00;35.50;;;24.77;;
7737;SDS011;29398;45.328;5.558;2024-01-30T01:41:04;37.58;;;27.42;;
7737;SDS011;29398;45.328;5.558;2024-01-30T01:42:06;35.55;;;25.95;;
7737;SDS011;29398;45.328;5.558;2024-01-30T01:43:07;37.28;;;26.50;;
7737;SDS011;29398;45.328;5.558;2024-01-30T01:44:09;35.38;;;25.92;;
7737;SDS011;29398;45.328;5.558;2024-01-30T01:45:10;41.58;;;27.40;;
7737;SDS011;29398;45.328;5.558;2024-01-30T01:46:11;39.05;;;27.88;;
7737;SDS011;29398;45.328;5.558;2024-01-30T01:47:14;39.33;;;27.58;;
7737;SDS011;29398;45.328;5.558;2024-01-30T01:48:16;33.38;;;24.80;;
7737;SDS011;29398;45.328;5.558;2024-01-30T01:49:19;37.65;;;27.23;;
7737;SDS011;29398;45.328;5.558;2024-01-30T01:50:21;33.53;;;26.55;;
7737;SDS011;29398;45.328;5.558;2024-01-30T01:51:24;38.22;;;26.77;;
7737;SDS011;29398;45.328;5.558;2024-01-30T01:52:28;35.03;;;26.77;;
7737;SDS011;29398;45.328;5.558;2024-01-30T01:53:30;34.50;;;26.42;;
7737;SDS011;29398;45.328;5.558;2024-01-30T01:54:32;36.25;;;26.23;;
7737;SDS011;29398;45.328;5.558;2024-01-30T01:55:35;31.13;;;25.10;;
7737;SDS011;29398;45.328;5.558;2024-01-30T01:56:37;37.00;;;24.77;;
7737;SDS011;29398;45.328;5.558;2024-01-30T01:57:40;34.20;;;25.55;;
7737;SDS011;29398;45.328;5.558;2024-01-30T01:58:42;36.20;;;27.00;;
7737;SDS011;29398;45.328;5.558;2024-01-30T01:59:47;32.55;;;24.10;;
7737;SDS011;29398;45.328;5.558;2024-01-30T02:00:48;31.30;;;22.88;;
7737;SDS011;29398;45.328;5.558;2024-01-30T02:01:52;31.50;;;24.05;;
7737;SDS011;29398;45.328;5.558;2024-01-30T02:02:56;31.67;;;23.02;;
7737;SDS011;29398;45.328;5.558;2024-01-30T02:04:00;28.30;;;22.92;;
7737;SDS011;29398;45.328;5.558;2024-01-30T02:05:01;33.72;;;24.50;;
7737;SDS011;29398;45.328;5.558;2024-01-30T02:06:04;33.20;;;23.70;;
7737;SDS011;29398;45.328;5.558;2024-01-30T02:07:05;33.20;;;23.45;;
7737;SDS011;29398;45.328;5.558;2024-01-30T02:08:07;30.83;;;22.42;;
7737;SDS011;29398;45.328;5.558;2024-01-30T02:09:10;29.73;;;23.23;;
7737;SDS011;29398;45.328;5.558;2024-01-30T02:10:11;30.95;;;22.05;;
7737;SDS011;29398;45.328;5.558;2024-01-30T02:11:13;33.72;;;23.33;;
7737;SDS011;29398;45.328;5.558;2024-01-30T02:12:16;32.10;;;23.13;;
7737;SDS011;29398;45.328;5.558;2024-01-30T02:13:18;30.77;;;21.65;;
7737;SDS011;29398;45.328;5.558;2024-01-30T02:14:19;30.65;;;23.38;;
7737;SDS011;29398;45.328;5.558;2024-01-30T02:15:21;29.23;;;21.80;;
7737;SDS011;29398;45.328;5.558;2024-01-30T02:16:22;29.08;;;21.35;;
7737;SDS011;29398;45.328;5.558;2024-01-30T02:17:24;27.85;;;21.13;;
7737;SDS011;29398;45.328;5.558;2024-01-30T02:18:25;28.95;;;21.92;;
7737;SDS011;29398;45.328;5.558;2024-01-30T02:19:28;29.50;;;21.80;;
7737;SDS011;29398;45.328;5.558;2024-01-30T02:20:48;29.48;;;22.35;;
7737;SDS011;29398;45.328;5.558;2024-01-30T02:21:51;30.50;;;22.00;;
7737;SDS011;29398;45.328;5.558;2024-01-30T02:22:53;32.38;;;21.58;;
7737;SDS011;29398;45.328;5.558;2024-01-30T02:23:57;29.55;;;20.85;;
7737;SDS011;29398;45.328;5.558;2024-01-30T02:25:00;26.10;;;19.70;;
7737;SDS011;29398;45.328;5.558;2024-01-30T02:26:02;33.03;;;22.45;;
7737;SDS011;29398;45.328;5.558;2024-01-30T02:27:04;30.17;;;22.27;;
7737;SDS011;29398;45.328;5.558;2024-01-30T02:28:06;31.85;;;24.10;;
7737;SDS011;29398;45.328;5.558;2024-01-30T02:29:07;28.98;;;22.13;;
7737;SDS011;29398;45.328;5.558;2024-01-30T02:30:09;31.33;;;23.02;;
7737;SDS011;29398;45.328;5.558;2024-01-30T02:31:11;27.48;;;21.40;;
7737;SDS011;29398;45.328;5.558;2024-01-30T02:32:13;30.95;;;22.65;;
7737;SDS011;29398;45.328;5.558;2024-01-30T02:33:14;35.22;;;21.58;;
7737;SDS011;29398;45.328;5.558;2024-01-30T02:35:35;31.42;;;21.50;;
7737;SDS011;29398;45.328;5.558;2024-01-30T02:36:37;28.92;;;21.30;;
7737;SDS011;29398;45.328;5.558;2024-01-30T02:37:40;30.92;;;22.25;;
7737;SDS011;29398;45.328;5.558;2024-01-30T02:38:42;30.55;;;21.80;;
7737;SDS011;29398;45.328;5.558;2024-01-30T02:39:43;30.17;;;22.00;;
7737;SDS011;29398;45.328;5.558;2024-01-30T02:40:45;28.10;;;21.63;;
7737;SDS011;29398;45.328;5.558;2024-01-30T02:41:46;25.25;;;20.60;;
7737;SDS011;29398;45.328;5.558;2024-01-30T02:42:47;26.60;;;20.77;;
7737;SDS011;29398;45.328;5.558;2024-01-30T02:43:49;26.63;;;20.67;;
7737;SDS011;29398;45.328;5.558;2024-01-30T02:44:50;26.13;;;20.33;;
7737;SDS011;29398;45.328;5.558;2024-01-30T02:45:52;26.77;;;19.50;;
7737;SDS011;29398;45.328;5.558;2024-01-30T02:46:53;28.17;;;20.55;;
7737;SDS011;29398;45.328;5.558;2024-01-30T02:47:55;30.33;;;21.05;;
7737;SDS011;29398;45.328;5.558;2024-01-30T02:48:56;29.42;;;21.00;;
7737;SDS011;29398;45.328;5.558;2024-01-30T02:49:58;28.50;;;21.08;;
7737;SDS011;29398;45.328;5.558;2024-01-30T02:50:59;30.10;;;20.02;;
7737;SDS011;29398;45.328;5.558;2024-01-30T02:52:02;26.52;;;19.60;;
7737;SDS011;29398;45.328;5.558;2024-01-30T02:53:05;29.55;;;20.67;;
7737;SDS011;29398;45.328;5.558;2024-01-30T02:54:10;22.92;;;18.33;;
7737;SDS011;29398;45.328;5.558;2024-01-30T02:55:11;27.85;;;20.45;;
7737;SDS011;29398;45.328;5.558;2024-01-30T02:56:13;28.50;;;21.30;;
7737;SDS011;29398;45.328;5.558;2024-01-30T02:57:14;27.95;;;20.35;;
7737;SDS011;29398;45.328;5.558;2024-01-30T02:58:16;25.63;;;19.80;;
7737;SDS011;29398;45.328;5.558;2024-01-30T02:59:17;26.63;;;20.88;;
7737;SDS011;29398;45.328;5.558;2024-01-30T03:00:20;30.73;;;20.35;;
7737;SDS011;29398;45.328;5.558;2024-01-30T03:01:21;26.92;;;19.17;;
7737;SDS011;29398;45.328;5.558;2024-01-30T03:02:24;29.38;;;21.05;;
7737;SDS011;29398;45.328;5.558;2024-01-30T03:03:26;24.88;;;19.38;;
7737;SDS011;29398;45.328;5.558;2024-01-30T03:04:27;26.88;;;20.15;;
7737;SDS011;29398;45.328;5.558;2024-01-30T03:05:30;28.13;;;20.50;;
7737;SDS011;29398;45.328;5.558;2024-01-30T03:06:32;26.58;;;19.17;;
7737;SDS011;29398;45.328;5.558;2024-01-30T03:07:33;25.60;;;19.05;;
7737;SDS011;29398;45.328;5.558;2024-01-30T03:08:35;25.92;;;20.13;;
7737;SDS011;29398;45.328;5.558;2024-01-30T03:09:38;26.08;;;18.33;;
7737;SDS011;29398;45.328;5.558;2024-01-30T03:10:39;23.77;;;19.05;;
7737;SDS011;29398;45.328;5.558;2024-01-30T03:11:41;30.95;;;20.23;;
7737;SDS011;29398;45.328;5.558;2024-01-30T03:12:42;25.25;;;18.77;;
7737;SDS011;29398;45.328;5.558;2024-01-30T03:13:43;24.75;;;18.40;;
7737;SDS011;29398;45.328;5.558;2024-01-30T03:14:45;25.65;;;19.55;;
7737;SDS011;29398;45.328;5.558;2024-01-30T03:15:46;23.00;;;18.73;;
7737;SDS011;29398;45.328;5.558;2024-01-30T03:16:48;27.75;;;19.35;;
7737;SDS011;29398;45.328;5.558;2024-01-30T03:17:50;24.92;;;19.98;;
7737;SDS011;29398;45.328;5.558;2024-01-30T03:18:52;25.80;;;19.33;;
7737;SDS011;29398;45.328;5.558;2024-01-30T03:19:54;27.02;;;20.60;;
7737;SDS011;29398;45.328;5.558;2024-01-30T03:20:55;26.27;;;19.20;;
7737;SDS011;29398;45.328;5.558;2024-01-30T03:21:57;28.60;;;19.02;;
7737;SDS011;29398;45.328;5.558;2024-01-30T03:22:59;26.17;;;19.10;;
7737;SDS011;29398;45.328;5.558;2024-01-30T03:24:03;30.75;;;20.25;;
7737;SDS011;29398;45.328;5.558;2024-01-30T03:25:05;29.42;;;20.17;;
7737;SDS011;29398;45.328;5.558;2024-01-30T03:26:08;27.55;;;19.98;;
7737;SDS011;29398;45.328;5.558;2024-01-30T03:27:11;27.17;;;19.60;;
7737;SDS011;29398;45.328;5.558;2024-01-30T03:28:13;28.05;;;19.35;;
7737;SDS011;29398;45.328;5.558;2024-01-30T03:29:14;25.58;;;19.42;;
7737;SDS011;29398;45.328;5.558;2024-01-30T03:30:16;33.22;;;22.00;;
7737;SDS011;29398;45.328;5.558;2024-01-30T03:31:18;37.10;;;24.15;;
7737;SDS011;29398;45.328;5.558;2024-01-30T03:32:20;29.55;;;21.52;;
7737;SDS011;29398;45.328;5.558;2024-01-30T03:33:21;31.15;;;21.08;;
7737;SDS011;29398;45.328;5.558;2024-01-30T03:34:23;30.23;;;19.00;;
7737;SDS011;29398;45.328;5.558;2024-01-30T03:35:24;31.92;;;21.33;;
7737;SDS011;29398;45.328;5.558;2024-01-30T03:36:27;27.48;;;18.35;;
7737;SDS011;29398;45.328;5.558;2024-01-30T03:37:28;26.08;;;20.23;;
7737;SDS011;29398;45.328;5.558;2024-01-30T03:38:30;27.77;;;20.65;;
7737;SDS011;29398;45.328;5.558;2024-01-30T03:39:34;31.67;;;23.02;;
7737;SDS011;29398;45.328;5.558;2024-01-30T03:40:36;34.03;;;24.15;;
7737;SDS011;29398;45.328;5.558;2024-01-30T03:41:37;31.95;;;22.67;;
7737;SDS011;29398;45.328;5.558;2024-01-30T03:42:42;28.83;;;20.48;;
7737;SDS011;29398;45.328;5.558;2024-01-30T03:43:44;28.77;;;20.42;;
7737;SDS011;29398;45.328;5.558;2024-01-30T03:44:45;28.38;;;20.80;;
7737;SDS011;29398;45.328;5.558;2024-01-30T03:45:47;30.27;;;21.98;;
7737;SDS011;29398;45.328;5.558;2024-01-30T03:46:48;30.25;;;21.15;;
7737;SDS011;29398;45.328;5.558;2024-01-30T03:47:50;28.35;;;20.77;;
7737;SDS011;29398;45.328;5.558;2024-01-30T03:48:51;31.25;;;22.13;;
7737;SDS011;29398;45.328;5.558;2024-01-30T03:49:53;29.15;;;21.45;;
7737;SDS011;29398;45.328;5.558;2024-01-30T03:50:54;31.15;;;22.48;;
7737;SDS011;29398;45.328;5.558;2024-01-30T03:51:56;29.58;;;21.60;;
7737;SDS011;29398;45.328;5.558;2024-01-30T03:52:57;30.58;;;21.80;;
7737;SDS011;29398;45.328;5.558;2024-01-30T03:54:00;29.77;;;21.83;;
7737;SDS011;29398;45.328;5.558;2024-01-30T03:55:02;36.97;;;23.88;;
7737;SDS011;29398;45.328;5.558;2024-01-30T03:56:05;31.42;;;23.02;;
7737;SDS011;29398;45.328;5.558;2024-01-30T03:57:06;34.40;;;23.90;;
7737;SDS011;29398;45.328;5.558;2024-01-30T03:58:08;33.17;;;24.52;;
7737;SDS011;29398;45.328;5.558;2024-01-30T03:59:09;29.75;;;22.88;;
7737;SDS011;29398;45.328;5.558;2024-01-30T04:00:12;31.65;;;23.58;;
7737;SDS011;29398;45.328;5.558;2024-01-30T04:01:14;33.15;;;25.10;;
7737;SDS011;29398;45.328;5.558;2024-01-30T04:02:16;31.83;;;24.13;;
7737;SDS011;29398;45.328;5.558;2024-01-30T04:03:18;30.08;;;23.48;;
7737;SDS011;29398;45.328;5.558;2024-01-30T04:04:20;29.27;;;22.92;;
7737;SDS011;29398;45.328;5.558;2024-01-30T04:05:21;33.55;;;24.65;;
7737;SDS011;29398;45.328;5.558;2024-01-30T04:06:22;33.35;;;24.55;;
7737;SDS011;29398;45.328;5.558;2024-01-30T04:07:24;30.30;;;21.88;;
7737;SDS011;29398;45.328;5.558;2024-01-30T04:08:25;31.95;;;22.67;;
7737;SDS011;29398;45.328;5.558;2024-01-30T04:09:27;30.13;;;22.58;;
7737;SDS011;29398;45.328;5.558;2024-01-30T04:10:30;30.02;;;23.92;;
7737;SDS011;29398;45.328;5.558;2024-01-30T04:11:32;29.15;;;22.35;;
7737;SDS011;29398;45.328;5.558;2024-01-30T04:12:33;33.03;;;23.35;;
7737;SDS011;29398;45.328;5.558;2024-01-30T04:13:35;30.67;;;22.60;;
7737;SDS011;29398;45.328;5.558;2024-01-30T04:14:37;28.73;;;22.10;;
7737;SDS011;29398;45.328;5.558;2024-01-30T04:15:39;29.40;;;22.17;;
7737;SDS011;29398;45.328;5.558;2024-01-30T04:16:41;29.25;;;21.63;;
7737;SDS011;29398;45.328;5.558;2024-01-30T04:17:43;28.80;;;22.13;;
7737;SDS011;29398;45.328;5.558;2024-01-30T04:18:44;30.27;;;21.25;;
7737;SDS011;29398;45.328;5.558;2024-01-30T04:19:45;30.15;;;22.05;;
7737;SDS011;29398;45.328;5.558;2024-01-30T04:20:47;28.58;;;21.25;;
7737;SDS011;29398;45.328;5.558;2024-01-30T04:21:48;33.20;;;22.60;;
7737;SDS011;29398;45.328;5.558;2024-01-30T04:22:50;27.27;;;20.90;;
7737;SDS011;29398;45.328;5.558;2024-01-30T04:23:51;29.38;;;20.98;;
7737;SDS011;29398;45.328;5.558;2024-01-30T04:24:53;29.00;;;20.63;;
7737;SDS011;29398;45.328;5.558;2024-01-30T04:25:55;28.08;;;19.52;;
7737;SDS011;29398;45.328;5.558;2024-01-30T04:26:57;29.50;;;21.25;;
7737;SDS011;29398;45.328;5.558;2024-01-30T04:27:58;26.52;;;19.95;;
7737;SDS011;29398;45.328;5.558;2024-01-30T04:29:00;26.75;;;19.75;;
7737;SDS011;29398;45.328;5.558;2024-01-30T04:30:01;27.90;;;21.00;;
7737;SDS011;29398;45.328;5.558;2024-01-30T04:31:04;27.63;;;20.20;;
7737;SDS011;29398;45.328;5.558;2024-01-30T04:32:05;27.73;;;20.50;;
7737;SDS011;29398;45.328;5.558;2024-01-30T04:33:07;30.67;;;20.55;;
7737;SDS011;29398;45.328;5.558;2024-01-30T04:34:08;30.77;;;20.27;;
7737;SDS011;29398;45.328;5.558;2024-01-30T04:35:10;29.30;;;20.08;;
7737;SDS011;29398;45.328;5.558;2024-01-30T04:36:11;28.08;;;20.98;;
7737;SDS011;29398;45.328;5.558;2024-01-30T04:37:15;26.73;;;19.63;;
7737;SDS011;29398;45.328;5.558;2024-01-30T04:38:16;25.05;;;18.92;;
7737;SDS011;29398;45.328;5.558;2024-01-30T04:39:18;26.48;;;19.42;;
7737;SDS011;29398;45.328;5.558;2024-01-30T04:40:19;28.80;;;20.67;;
7737;SDS011;29398;45.328;5.558;2024-01-30T04:41:22;30.05;;;21.15;;
7737;SDS011;29398;45.328;5.558;2024-01-30T04:42:23;27.67;;;21.30;;
7737;SDS011;29398;45.328;5.558;2024-01-30T04:43:25;27.33;;;21.33;;
7737;SDS011;29398;45.328;5.558;2024-01-30T04:44:26;28.52;;;21.35;;
7737;SDS011;29398;45.328;5.558;2024-01-30T04:45:28;31.45;;;21.33;;
7737;SDS011;29398;45.328;5.558;2024-01-30T04:46:29;34.03;;;22.42;;
7737;SDS011;29398;45.328;5.558;2024-01-30T04:47:31;28.58;;;19.90;;
7737;SDS011;29398;45.328;5.558;2024-01-30T04:48:32;28.17;;;20.88;;
7737;SDS011;29398;45.328;5.558;2024-01-30T04:49:34;29.58;;;20.20;;
7737;SDS011;29398;45.328;5.558;2024-01-30T04:50:36;30.45;;;21.52;;
7737;SDS011;29398;45.328;5.558;2024-01-30T04:51:38;30.02;;;20.30;;
7737;SDS011;29398;45.328;5.558;2024-01-30T04:52:39;28.95;;;20.90;;
7737;SDS011;29398;45.328;5.558;2024-01-30T04:53:41;29.65;;;20.80;;
7737;SDS011;29398;45.328;5.558;2024-01-30T04:54:42;34.42;;;20.67;;
7737;SDS011;29398;45.328;5.558;2024-01-30T04:55:44;25.95;;;20.20;;
7737;SDS011;29398;45.328;5.558;2024-01-30T04:56:46;29.45;;;21.75;;
7737;SDS011;29398;45.328;5.558;2024-01-30T04:57:48;29.38;;;22.63;;
7737;SDS011;29398;45.328;5.558;2024-01-30T04:58:49;31.45;;;22.50;;
7737;SDS011;29398;45.328;5.558;2024-01-30T04:59:51;33.72;;;23.27;;
7737;SDS011;29398;45.328;5.558;2024-01-30T05:00:53;31.80;;;22.27;;
7737;SDS011;29398;45.328;5.558;2024-01-30T05:01:54;30.02;;;23.15;;
7737;SDS011;29398;45.328;5.558;2024-01-30T05:02:56;34.10;;;22.52;;
7737;SDS011;29398;45.328;5.558;2024-01-30T05:04:16;27.92;;;21.95;;
7737;SDS011;29398;45.328;5.558;2024-01-30T05:05:17;32.00;;;23.10;;
7737;SDS011;29398;45.328;5.558;2024-01-30T05:06:25;32.67;;;23.38;;
7737;SDS011;29398;45.328;5.558;2024-01-30T05:07:26;32.47;;;23.63;;
7737;SDS011;29398;45.328;5.558;2024-01-30T05:08:28;33.70;;;23.40;;
7737;SDS011;29398;45.328;5.558;2024-01-30T05:09:29;33.20;;;23.98;;
7737;SDS011;29398;45.328;5.558;2024-01-30T05:10:30;31.55;;;23.27;;
7737;SDS011;29398;45.328;5.558;2024-01-30T05:11:36;29.38;;;22.70;;
7737;SDS011;29398;45.328;5.558;2024-01-30T05:12:39;32.45;;;23.38;;
7737;SDS011;29398;45.328;5.558;2024-01-30T05:13:42;30.48;;;22.95;;
7737;SDS011;29398;45.328;5.558;2024-01-30T05:14:43;31.73;;;23.10;;
7737;SDS011;29398;45.328;5.558;2024-01-30T05:15:45;33.25;;;22.90;;
7737;SDS011;29398;45.328;5.558;2024-01-30T05:16:46;32.53;;;24.40;;
7737;SDS011;29398;45.328;5.558;2024-01-30T05:17:48;31.23;;;24.63;;
7737;SDS011;29398;45.328;5.558;2024-01-30T05:18:49;29.92;;;23.10;;
7737;SDS011;29398;45.328;5.558;2024-01-30T05:19:50;30.20;;;23.08;;
7737;SDS011;29398;45.328;5.558;2024-01-30T05:20:52;35.83;;;24.13;;
7737;SDS011;29398;45.328;5.558;2024-01-30T05:21:53;30.67;;;24.27;;
7737;SDS011;29398;45.328;5.558;2024-01-30T05:22:55;30.65;;;24.52;;
7737;SDS011;29398;45.328;5.558;2024-01-30T05:23:56;31.83;;;23.23;;
7737;SDS011;29398;45.328;5.558;2024-01-30T05:24:58;35.72;;;24.35;;
7737;SDS011;29398;45.328;5.558;2024-01-30T05:25:59;32.28;;;24.08;;
7737;SDS011;29398;45.328;5.558;2024-01-30T05:27:02;30.73;;;23.20;;
7737;SDS011;29398;45.328;5.558;2024-01-30T05:28:05;34.78;;;24.55;;
7737;SDS011;29398;45.328;5.558;2024-01-30T05:29:07;30.58;;;23.05;;
7737;SDS011;29398;45.328;5.558;2024-01-30T05:30:09;31.63;;;24.17;;
7737;SDS011;29398;45.328;5.558;2024-01-30T05:31:11;31.15;;;22.63;;
7737;SDS011;29398;45.328;5.558;2024-01-30T05:32:12;33.15;;;23.95;;
7737;SDS011;29398;45.328;5.558;2024-01-30T05:33:15;32.00;;;23.15;;
7737;SDS011;29398;45.328;5.558;2024-01-30T05:34:16;31.00;;;23.85;;
7737;SDS011;29398;45.328;5.558;2024-01-30T05:35:17;31.63;;;23.05;;
7737;SDS011;29398;45.328;5.558;2024-01-30T05:36:21;29.42;;;22.15;;
7737;SDS011;29398;45.328;5.558;2024-01-30T05:37:22;30.90;;;23.17;;
7737;SDS011;29398;45.328;5.558;2024-01-30T05:38:24;33.15;;;22.45;;
7737;SDS011;29398;45.328;5.558;2024-01-30T05:39:25;30.83;;;23.55;;
7737;SDS011;29398;45.328;5.558;2024-01-30T05:40:27;29.10;;;21.23;;
7737;SDS011;29398;45.328;5.558;2024-01-30T05:41:28;29.73;;;21.42;;
7737;SDS011;29398;45.328;5.558;2024-01-30T05:42:49;29.10;;;22.48;;
7737;SDS011;29398;45.328;5.558;2024-01-30T05:43:54;28.42;;;21.08;;
7737;SDS011;29398;45.328;5.558;2024-01-30T05:44:56;35.50;;;23.02;;
7737;SDS011;29398;45.328;5.558;2024-01-30T05:45:57;28.38;;;21.60;;
7737;SDS011;29398;45.328;5.558;2024-01-30T05:46:58;32.78;;;22.17;;
7737;SDS011;29398;45.328;5.558;2024-01-30T05:48:00;27.25;;;21.30;;
7737;SDS011;29398;45.328;5.558;2024-01-30T05:49:01;26.52;;;20.73;;
7737;SDS011;29398;45.328;5.558;2024-01-30T05:50:04;29.88;;;21.67;;
7737;SDS011;29398;45.328;5.558;2024-01-30T05:51:06;32.17;;;22.73;;
7737;SDS011;29398;45.328;5.558;2024-01-30T05:52:09;32.22;;;22.02;;
7737;SDS011;29398;45.328;5.558;2024-01-30T05:53:10;34.72;;;22.40;;
7737;SDS011;29398;45.328;5.558;2024-01-30T05:54:11;31.77;;;22.80;;
7737;SDS011;29398;45.328;5.558;2024-01-30T05:55:13;30.17;;;21.48;;
7737;SDS011;29398;45.328;5.558;2024-01-30T05:56:14;28.15;;;21.80;;
7737;SDS011;29398;45.328;5.558;2024-01-30T05:57:16;29.75;;;20.98;;
7737;SDS011;29398;45.328;5.558;2024-01-30T05:58:18;29.88;;;22.15;;
7737;SDS011;29398;45.328;5.558;2024-01-30T05:59:21;28.92;;;21.75;;
7737;SDS011;29398;45.328;5.558;2024-01-30T06:00:23;30.67;;;20.90;;
7737;SDS011;29398;45.328;5.558;2024-01-30T06:01:25;31.20;;;21.80;;
7737;SDS011;29398;45.328;5.558;2024-01-30T06:02:26;26.27;;;20.20;;
7737;SDS011;29398;45.328;5.558;2024-01-30T06:03:28;28.17;;;21.25;;
7737;SDS011;29398;45.328;5.558;2024-01-30T06:04:29;27.77;;;20.85;;
7737;SDS011;29398;45.328;5.558;2024-01-30T06:05:31;27.05;;;21.83;;
7737;SDS011;29398;45.328;5.558;2024-01-30T06:06:32;28.77;;;20.48;;
7737;SDS011;29398;45.328;5.558;2024-01-30T06:07:34;30.23;;;22.45;;
7737;SDS011;29398;45.328;5.558;2024-01-30T06:08:35;28.58;;;20.95;;
7737;SDS011;29398;45.328;5.558;2024-01-30T06:09:37;30.58;;;21.35;;